Time;durP1;ratioP1;P1;durP2;ratioP2;P2;SDS_P1;SDS_P2;PMS_P1;PMS_P2;Temp;Humidity;BMP_temperature;BMP_pressure;BME280_temperature;BME280_humidity;BME280_pressure;Samples;Min_cycle;Max_cycle;Signal;HPM_P1;HPM_P2
2022/08/09 00:01:47;;;;;;;10.32;8.05;;;;;;;21.24;68.41;100974.50;1749002;82;21220;-54
2022/08/09 00:04:54;;;;;;;10.23;8.58;;;;;;;21.24;68.50;100973.11;1748129;82;21259;-54
2022/08/09 00:08:05;;;;;;;12.25;8.15;;;;;;;21.23;68.57;100967.77;1748488;81;21228;-54
2022/08/09 00:11:12;;;;;;;10.70;8.60;;;;;;;21.20;68.63;100961.27;1750570;81;21196;-55
2022/08/09 00:14:20;;;;;;;10.70;8.08;;;;;;;21.18;68.69;100969.86;1737348;82;21197;-55
2022/08/09 00:17:26;;;;;;;9.45;7.95;;;;;;;21.16;68.75;100964.19;1747637;82;21212;-54
2022/08/09 00:20:34;;;;;;;8.80;7.87;;;;;;;21.13;68.81;100958.55;1737396;82;21224;-55
2022/08/09 00:23:42;;;;;;;8.50;7.70;;;;;;;21.10;68.89;100963.20;1754630;81;21855;-54
2022/08/09 00:26:50;;;;;;;8.83;7.92;;;;;;;21.08;68.98;100958.92;1747065;80;21236;-54
2022/08/09 00:29:57;;;;;;;8.28;7.53;;;;;;;21.06;69.09;100961.94;1748761;81;21192;-55
2022/08/09 00:33:05;;;;;;;10.08;8.20;;;;;;;21.05;69.13;100963.03;1747788;81;21204;-55
2022/08/09 00:36:12;;;;;;;9.28;8.15;;;;;;;21.04;69.22;100961.31;1747994;82;21240;-54
2022/08/09 00:39:18;;;;;;;8.88;7.90;;;;;;;21.04;69.31;100965.48;1757339;81;21322;-55
2022/08/09 00:42:28;;;;;;;10.08;8.10;;;;;;;21.03;69.37;100966.58;1748800;82;21667;-55
2022/08/09 00:45:36;;;;;;;9.18;7.92;;;;;;;21.03;69.43;100967.97;1748860;82;21204;-55
2022/08/09 00:48:44;;;;;;;9.68;7.87;;;;;;;21.02;69.48;100973.23;1748855;82;21224;-55
2022/08/09 00:51:55;;;;;;;8.88;7.97;;;;;;;21.00;69.56;100967.04;1748693;81;21212;-54
2022/08/09 00:55:05;;;;;;;9.78;8.15;;;;;;;21.02;69.69;100970.98;1728721;82;21209;-54
2022/08/09 00:58:13;;;;;;;12.18;9.08;;;;;;;21.03;69.77;100972.67;1728764;82;21378;-54
2022/08/09 01:01:29;;;;;;;9.48;8.25;;;;;;;21.04;69.87;100963.27;1730494;82;21205;-55
2022/08/09 01:05:08;;;;;;;9.15;8.23;;;;;;;21.05;69.89;100965.81;1729789;82;21332;-56
2022/08/09 01:08:27;;;;;;;14.95;9.33;;;;;;;21.05;69.96;100964.95;1728487;82;21221;-55
2022/08/09 01:11:48;;;;;;;9.55;8.65;;;;;;;21.02;69.99;100969.06;1727847;82;21260;-55
2022/08/09 01:15:10;;;;;;;10.70;9.60;;;;;;;21.00;70.04;100965.65;1730798;82;21189;-56
2022/08/09 01:18:20;;;;;;;9.75;8.70;;;;;;;20.98;70.13;100969.75;1731051;82;21250;-57
2022/08/09 01:21:54;;;;;;;10.10;8.80;;;;;;;20.99;70.27;100967.27;1726647;82;21208;-54
2022/08/09 01:25:08;;;;;;;15.32;9.85;;;;;;;20.99;70.35;100969.52;1730624;82;21256;-55
2022/08/09 01:28:16;;;;;;;12.95;9.48;;;;;;;20.97;70.43;100964.72;1730574;82;21544;-55
2022/08/09 01:31:27;;;;;;;9.68;8.73;;;;;;;20.98;70.50;100961.41;1716651;81;21161;-56
2022/08/09 01:34:35;;;;;;;9.80;8.85;;;;;;;20.98;70.59;100965.02;1724853;83;21177;-53
2022/08/09 01:37:40;;;;;;;9.90;8.88;;;;;;;20.97;70.64;100963.33;1724969;83;21275;-54
2022/08/09 01:40:54;;;;;;;11.53;9.80;;;;;;;20.98;70.73;100963.63;1724498;83;21196;-55
2022/08/09 01:44:08;;;;;;;13.83;9.40;;;;;;;20.97;70.78;100961.94;1727939;82;21193;-55
2022/08/09 01:47:16;;;;;;;11.70;9.48;;;;;;;20.97;70.87;100966.11;1726065;82;21279;-54
2022/08/09 01:50:24;;;;;;;13.22;9.48;;;;;;;20.95;70.95;100959.88;1726106;81;21193;-56
2022/08/09 01:53:31;;;;;;;11.08;9.73;;;;;;;20.94;71.01;100958.19;1724931;83;21333;-54
2022/08/09 01:56:40;;;;;;;10.90;9.80;;;;;;;20.92;71.05;100956.69;1701296;83;21195;-54
2022/08/09 01:59:50;;;;;;;11.08;9.98;;;;;;;20.87;71.13;100958.78;1735225;81;21200;-54
2022/08/09 02:03:00;;;;;;;13.28;10.08;;;;;;;20.83;71.21;100963.11;1748764;82;21240;-55
2022/08/09 02:06:10;;;;;;;12.47;10.65;;;;;;;20.82;71.33;100968.91;1759164;81;21192;-54
2022/08/09 02:09:18;;;;;;;11.53;9.93;;;;;;;20.79;71.41;100966.88;1748670;82;21223;-56
2022/08/09 02:12:26;;;;;;;12.37;10.00;;;;;;;20.78;71.48;100967.98;1749041;81;21232;-55
2022/08/09 02:15:33;;;;;;;12.03;10.25;;;;;;;20.78;71.55;100967.98;1748517;82;21768;-55
2022/08/09 02:18:41;;;;;;;11.85;10.20;;;;;;;20.77;71.64;100969.04;1738138;82;21252;-54
2022/08/09 02:21:54;;;;;;;12.43;10.65;;;;;;;20.77;71.71;100973.21;1724897;83;21340;-55
2022/08/09 02:25:01;;;;;;;10.95;9.60;;;;;;;20.77;71.74;100969.59;1724889;83;21366;-55
2022/08/09 02:28:13;;;;;;;13.70;10.20;;;;;;;20.76;71.85;100985.97;1726517;81;21224;-55
2022/08/09 02:31:32;;;;;;;11.63;10.28;;;;;;;20.74;71.95;100984.80;1748934;82;21235;-55
2022/08/09 02:34:40;;;;;;;10.88;9.68;;;;;;;20.76;72.00;100983.18;1748568;82;21263;-55
2022/08/09 02:37:49;;;;;;;11.35;10.25;;;;;;;20.76;72.06;100981.79;1741637;81;21206;-55
2022/08/09 02:40:54;;;;;;;12.98;10.03;;;;;;;20.76;72.12;100988.22;1753759;80;21616;-55
2022/08/09 02:44:01;;;;;;;11.75;10.55;;;;;;;20.75;72.19;100986.53;1750795;80;21204;-56
2022/08/09 02:47:13;;;;;;;12.23;10.90;;;;;;;20.77;72.23;100984.91;1739555;80;21215;-56
2022/08/09 02:50:24;;;;;;;15.55;10.53;;;;;;;20.74;72.26;100988.98;1679054;83;21360;-55
2022/08/09 02:53:36;;;;;;;11.30;9.85;;;;;;;20.72;72.31;100986.95;1705877;83;21229;-54
2022/08/09 02:56:43;;;;;;;11.60;10.15;;;;;;;20.73;72.41;100991.98;1749753;81;21261;-54
2022/08/09 02:59:54;;;;;;;12.00;10.13;;;;;;;20.72;72.45;100989.73;1710405;83;21285;-55
2022/08/09 03:03:02;;;;;;;12.93;10.25;;;;;;;20.71;72.53;100988.05;1674926;85;21246;-56
2022/08/09 03:06:13;;;;;;;15.08;10.55;;;;;;;20.72;72.57;100994.47;1693247;83;21230;-55
2022/08/09 03:09:19;;;;;;;11.83;10.03;;;;;;;20.71;72.62;100992.22;1659129;86;21268;-57
2022/08/09 03:12:26;;;;;;;11.03;9.98;;;;;;;20.71;72.72;100993.61;1642390;86;21276;-55
2022/08/09 03:15:36;;;;;;;11.50;10.32;;;;;;;20.73;72.86;100991.98;1679208;83;21203;-55
2022/08/09 03:18:47;;;;;;;12.58;10.18;;;;;;;20.76;72.90;100994.31;1714625;83;21233;-54
2022/08/09 03:21:54;;;;;;;11.63;9.98;;;;;;;20.77;72.90;100996.03;1706915;84;21174;-53
2022/08/09 03:25:02;;;;;;;12.37;10.35;;;;;;;20.78;72.93;101002.77;1700330;84;21558;-54
2022/08/09 03:28:11;;;;;;;12.13;10.43;;;;;;;20.77;72.96;101002.44;1672749;86;21251;-55
2022/08/09 03:31:20;;;;;;;12.15;10.70;;;;;;;20.77;73.01;101002.44;1678165;84;21201;-55
2022/08/09 03:34:28;;;;;;;12.58;10.00;;;;;;;20.77;73.06;101005.22;1655660;86;21226;-56
2022/08/09 03:37:35;;;;;;;11.75;10.60;;;;;;;20.78;73.14;101005.55;1709123;84;21240;-55
2022/08/09 03:40:43;;;;;;;11.25;10.15;;;;;;;20.80;73.25;100999.75;1703123;84;21486;-55
2022/08/09 03:43:53;;;;;;;12.50;11.20;;;;;;;20.83;73.27;101008.48;1689590;84;21243;-56
2022/08/09 03:47:01;;;;;;;12.37;10.90;;;;;;;20.84;73.33;101005.16;1702489;84;21413;-54
2022/08/09 03:50:09;;;;;;;12.25;10.45;;;;;;;20.87;73.36;101012.23;1702346;84;21241;-55
2022/08/09 03:53:17;;;;;;;11.40;10.30;;;;;;;20.88;73.40;101009.22;1702386;84;21391;-58
2022/08/09 03:56:25;;;;;;;11.30;9.58;;;;;;;20.96;73.53;101009.45;1701298;84;21228;-55
2022/08/09 03:59:34;;;;;;;12.88;11.08;;;;;;;20.99;73.52;101007.11;1701884;84;21260;-56
2022/08/09 04:02:41;;;;;;;12.30;11.00;;;;;;;21.04;73.58;101000.29;1701456;84;21292;-56
2022/08/09 04:05:49;;;;;;;11.93;10.72;;;;;;;21.06;73.57;100995.91;1702009;84;21205;-55
2022/08/09 04:09:01;;;;;;;11.60;10.32;;;;;;;21.10;73.64;100995.22;1702323;84;21268;-55
2022/08/09 04:12:24;;;;;;;12.73;11.30;;;;;;;21.14;73.73;100995.05;1702214;84;21296;-55
2022/08/09 04:15:32;;;;;;;12.03;10.82;;;;;;;21.19;73.76;100996.62;1701606;84;21225;-56
2022/08/09 04:18:40;;;;;;;15.40;10.95;;;;;;;21.25;73.74;100985.94;1701276;84;21619;-56
2022/08/09 04:21:48;;;;;;;12.30;11.05;;;;;;;21.30;73.77;100993.07;1702439;82;21245;-55
2022/08/09 04:24:56;;;;;;;12.10;11.00;;;;;;;21.35;73.79;100989.05;1701036;84;21268;-55
2022/08/09 04:28:02;;;;;;;16.65;11.85;;;;;;;21.43;73.88;100991.53;1702259;83;21221;-56
2022/08/09 04:31:14;;;;;;;12.50;11.20;;;;;;;21.52;73.95;100987.34;1695727;84;21241;-56
2022/08/09 04:34:21;;;;;;;12.80;11.33;;;;;;;21.59;73.87;100983.95;1702340;83;21233;-56
2022/08/09 04:37:33;;;;;;;12.80;11.53;;;;;;;21.64;73.82;100992.47;1702383;84;21244;-55
2022/08/09 04:40:50;;;;;;;13.48;12.18;;;;;;;21.70;73.83;100985.96;1704418;83;21240;-55
2022/08/09 04:43:55;;;;;;;12.43;11.12;;;;;;;21.77;73.85;100972.80;1700621;84;21809;-56
2022/08/09 04:47:02;;;;;;;15.15;11.08;;;;;;;21.88;73.96;100974.80;1701586;84;21189;-55
2022/08/09 04:50:13;;;;;;;13.78;11.83;;;;;;;22.02;74.05;100973.52;1701494;84;21235;-56
2022/08/09 04:53:27;;;;;;;14.95;12.18;;;;;;;22.19;74.12;100971.80;1723437;81;21295;-56
2022/08/09 04:56:39;;;;;;;13.70;11.63;;;;;;;22.34;74.10;100970.50;1710384;80;21196;-54
2022/08/09 04:59:49;;;;;;;14.85;12.28;;;;;;;22.47;74.08;100972.53;1716598;82;21209;-55
2022/08/09 05:02:55;;;;;;;14.45;12.60;;;;;;;22.53;73.98;100973.02;1710903;83;21750;-52
2022/08/09 05:06:05;;;;;;;15.60;12.73;;;;;;;22.64;74.06;100976.38;1701140;83;21249;-53
2022/08/09 05:09:15;;;;;;;14.05;12.65;;;;;;;22.73;74.07;100972.67;1714919;83;21228;-53
2022/08/09 05:12:24;;;;;;;14.05;12.63;;;;;;;22.76;73.93;100969.39;1729112;83;21213;-53
2022/08/09 05:15:31;;;;;;;15.23;12.33;;;;;;;22.78;73.96;100981.19;1729123;83;21244;-52
2022/08/09 05:18:41;;;;;;;15.32;11.65;;;;;;;22.82;74.06;100972.61;1710476;82;21242;-52
2022/08/09 05:21:50;;;;;;;13.40;11.53;;;;;;;22.88;74.06;100973.07;1705130;81;21236;-52
2022/08/09 05:24:57;;;;;;;14.18;12.37;;;;;;;22.90;74.10;100973.66;1716872;82;21217;-52
2022/08/09 05:28:04;;;;;;;13.72;11.40;;;;;;;22.99;74.25;100967.47;1699930;83;21217;-53
2022/08/09 05:31:11;;;;;;;17.32;12.65;;;;;;;23.14;74.39;100973.43;1729631;78;21721;-53
2022/08/09 05:34:20;;;;;;;12.40;11.20;;;;;;;23.33;74.42;100972.77;1667757;84;21336;-53
2022/08/09 05:37:31;;;;;;;13.50;11.93;;;;;;;23.48;74.42;100968.94;1677523;84;21241;-53
2022/08/09 05:40:38;;;;;;;11.53;10.43;;;;;;;23.61;74.35;100963.91;1718620;81;21228;-53
2022/08/09 05:43:47;;;;;;;14.15;11.93;;;;;;;23.73;74.30;100962.50;1665214;84;21782;-52
2022/08/09 05:46:55;;;;;;;12.65;11.45;;;;;;;23.78;74.17;100962.60;1729729;83;21217;-51
2022/08/09 05:50:03;;;;;;;14.38;11.65;;;;;;;23.81;74.18;100964.91;1730034;83;21197;-51
2022/08/09 05:53:15;;;;;;;11.65;10.50;;;;;;;23.86;74.23;100965.55;1721764;81;21217;-51
2022/08/09 05:56:24;;;;;;;12.03;10.78;;;;;;;23.89;74.19;100966.45;1684588;81;21217;-51
2022/08/09 05:59:30;;;;;;;12.58;10.58;;;;;;;23.88;74.18;100968.95;1737229;81;21232;-52
2022/08/09 06:02:38;;;;;;;11.43;10.30;;;;;;;23.87;74.20;100968.09;1683001;83;21272;-51
2022/08/09 06:05:45;;;;;;;13.83;10.70;;;;;;;23.88;74.25;100975.38;1753091;81;21189;-51
2022/08/09 06:08:53;;;;;;;13.32;11.15;;;;;;;23.90;74.30;100970.39;1678441;84;21242;-52
2022/08/09 06:12:02;;;;;;;11.25;10.15;;;;;;;23.95;74.31;100966.30;1728841;83;21729;-50
2022/08/09 06:15:09;;;;;;;21.42;15.23;;;;;;;23.93;74.26;100972.69;1711442;83;21224;-52
2022/08/09 06:18:20;;;;;;;13.88;10.93;;;;;;;23.89;74.29;100975.70;1707721;83;21228;-50
2022/08/09 06:21:32;;;;;;;12.73;10.03;;;;;;;23.90;74.35;100970.39;1729661;83;21181;-50
2022/08/09 06:24:41;;;;;;;11.00;9.90;;;;;;;23.90;74.35;100965.34;1729959;82;21201;-51
2022/08/09 06:27:51;;;;;;;10.98;9.93;;;;;;;23.90;74.31;100967.59;1722192;83;21224;-50
2022/08/09 06:30:58;;;;;;;11.38;10.18;;;;;;;23.92;74.33;100972.40;1700839;84;21272;-50
2022/08/09 06:34:04;;;;;;;10.55;9.50;;;;;;;23.95;74.37;100971.90;1716837;83;21250;-49
2022/08/09 06:37:18;;;;;;;9.97;8.70;;;;;;;23.99;74.34;100966.13;1734193;81;21210;-49
2022/08/09 06:40:28;;;;;;;12.73;9.55;;;;;;;24.01;74.30;100970.07;1670649;84;22466;-48
2022/08/09 06:43:36;;;;;;;11.57;9.48;;;;;;;24.07;74.40;100971.89;1667952;83;21193;-49
2022/08/09 06:46:43;;;;;;;11.85;9.70;;;;;;;24.16;74.47;100977.38;1715288;81;21203;-49
2022/08/09 06:49:51;;;;;;;12.95;10.45;;;;;;;24.26;74.54;100971.42;1656075;85;21726;-54
2022/08/09 06:53:00;;;;;;;10.25;9.28;;;;;;;24.39;74.59;100971.66;1701282;84;21324;-56
2022/08/09 06:56:23;;;;;;;10.58;9.58;;;;;;;24.47;74.58;100980.50;1698896;84;21248;-56
2022/08/09 06:59:29;;;;;;;15.00;10.48;;;;;;;24.59;74.63;100979.87;1701259;84;21276;-55
2022/08/09 07:02:44;;;;;;;12.60;9.20;;;;;;;24.72;74.65;100975.38;1701231;84;21382;-55
2022/08/09 07:06:05;;;;;;;18.12;10.15;;;;;;;24.82;74.63;100974.70;1702092;84;21237;-55
2022/08/09 07:09:12;;;;;;;10.38;9.38;;;;;;;24.93;74.57;100981.63;1706300;83;22024;-54
2022/08/09 07:12:19;;;;;;;9.85;8.50;;;;;;;25.03;74.56;100986.55;1713314;83;21605;-54
2022/08/09 07:15:28;;;;;;;9.35;8.40;;;;;;;25.13;74.48;100972.70;1723903;83;21194;-55
2022/08/09 07:18:37;;;;;;;11.08;7.65;;;;;;;25.23;74.45;100977.05;1718550;80;21258;-54
2022/08/09 07:21:45;;;;;;;9.00;8.10;;;;;;;25.33;74.43;100967.94;1711553;81;21823;-55
2022/08/09 07:24:54;;;;;;;8.75;7.78;;;;;;;25.42;74.37;100970.08;1722384;81;21193;-56
2022/08/09 07:28:05;;;;;;;9.68;8.00;;;;;;;25.50;74.23;100965.42;1719795;83;21263;-55
2022/08/09 07:31:23;;;;;;;9.33;7.33;;;;;;;25.59;74.17;100965.83;1715086;82;21244;-53
2022/08/09 07:34:35;;;;;;;7.60;6.80;;;;;;;25.67;74.15;100966.78;1719248;83;21406;-54
2022/08/09 07:37:47;;;;;;;7.45;6.67;;;;;;;25.77;74.13;100965.48;1718070;81;21205;-53
2022/08/09 07:40:59;;;;;;;8.70;7.12;;;;;;;25.83;74.00;100961.66;1713478;83;21581;-53
2022/08/09 07:44:10;;;;;;;9.50;8.03;;;;;;;25.90;73.92;100963.16;1721327;81;21201;-53
2022/08/09 07:47:17;;;;;;;7.53;6.83;;;;;;;25.97;73.86;100961.55;1706087;83;21216;-52
2022/08/09 07:50:25;;;;;;;5.47;4.95;;;;;;;26.07;73.91;100958.87;1729876;83;21193;-51
2022/08/09 07:53:34;;;;;;;6.85;5.15;;;;;;;26.17;73.70;100960.41;1716308;82;21821;-53
2022/08/09 07:56:48;;;;;;;7.10;5.97;;;;;;;26.23;73.45;100956.53;1702095;83;21748;-53
2022/08/09 07:59:59;;;;;;;9.05;6.37;;;;;;;26.29;73.33;100961.94;1719147;81;22010;-52
2022/08/09 08:03:11;;;;;;;7.00;6.00;;;;;;;26.34;73.22;100963.41;1704497;83;21241;-52
2022/08/09 08:06:19;;;;;;;12.13;6.70;;;;;;;26.42;73.13;100967.69;1711020;81;21209;-52
2022/08/09 08:09:27;;;;;;;7.03;6.30;;;;;;;26.47;73.00;100964.93;1725076;81;21217;-52
2022/08/09 08:12:35;;;;;;;8.70;6.33;;;;;;;26.54;72.87;100972.59;1710898;83;21216;-52
2022/08/09 08:15:46;;;;;;;13.55;5.95;;;;;;;26.60;72.77;100979.09;1695145;82;21704;-52
2022/08/09 08:18:53;;;;;;;7.97;5.15;;;;;;;26.66;72.68;100969.63;1727939;80;21260;-53
2022/08/09 08:22:03;;;;;;;9.58;5.22;;;;;;;26.76;72.65;100975.34;1757736;81;21308;-53
2022/08/09 08:25:13;;;;;;;8.90;5.20;;;;;;;26.87;72.56;100975.72;1668369;83;21266;-53
2022/08/09 08:28:20;;;;;;;7.95;4.95;;;;;;;26.96;72.50;100972.14;1713676;81;21255;-52
2022/08/09 08:31:33;;;;;;;5.30;4.55;;;;;;;27.01;72.25;100972.19;1710415;83;21256;-53
2022/08/09 08:34:54;;;;;;;9.43;4.40;;;;;;;27.09;72.14;100961.00;1715491;82;21784;-52
2022/08/09 08:38:02;;;;;;;5.92;4.10;;;;;;;27.13;71.90;100965.80;1722398;82;21769;-53
2022/08/09 08:41:10;;;;;;;7.97;4.37;;;;;;;27.18;71.75;100960.22;1708737;84;21219;-53
2022/08/09 08:44:18;;;;;;;4.67;4.20;;;;;;;27.25;71.69;100967.02;1717944;81;21626;-52
2022/08/09 08:47:36;;;;;;;4.90;4.33;;;;;;;27.32;71.66;100957.25;1681873;82;21773;-51
2022/08/09 08:50:45;;;;;;;7.60;4.55;;;;;;;27.37;71.42;100959.27;1722904;81;21271;-52
2022/08/09 08:53:53;;;;;;;7.62;4.67;;;;;;;27.41;71.27;100951.97;1724103;82;21633;-54
2022/08/09 08:56:59;;;;;;;5.78;4.58;;;;;;;27.47;71.10;100953.13;1710440;82;21260;-52
2022/08/09 09:00:09;;;;;;;7.83;4.05;;;;;;;27.52;70.94;100948.95;1746017;81;21200;-51
2022/08/09 09:03:19;;;;;;;7.92;4.58;;;;;;;27.61;70.87;100940.81;1735793;82;21240;-58
2022/08/09 09:06:22;;;;;;;26.23;4.87;;;;;;;27.66;70.68;100938.88;1729575;81;21207;-55
2022/08/09 09:09:16;;;;;;;7.12;4.55;;;;;;;27.70;70.45;100942.83;1677728;84;21220;-55
2022/08/09 09:12:28;;;;;;;5.40;4.47;;;;;;;27.72;70.34;100937.77;1741118;81;21201;-56
2022/08/09 09:15:44;;;;;;;7.55;5.12;;;;;;;27.83;70.27;100947.95;1739996;81;21714;-56
2022/08/09 09:18:57;;;;;;;7.08;5.20;;;;;;;27.94;70.23;100943.22;1679448;84;21213;-58
2022/08/09 09:22:12;;;;;;;8.90;4.90;;;;;;;27.98;70.04;100940.71;1679388;83;21251;-59
2022/08/09 09:25:24;;;;;;;6.78;4.55;;;;;;;28.03;69.90;100937.92;1678697;84;21189;-55
2022/08/09 09:28:32;;;;;;;6.80;4.95;;;;;;;28.12;69.88;100937.66;1647541;84;21780;-55
2022/08/09 09:31:45;;;;;;;5.90;4.70;;;;;;;28.21;69.79;100943.87;1654681;83;21268;-56
2022/08/09 09:35:16;;;;;;;5.95;4.80;;;;;;;28.29;69.59;100935.46;1684135;83;21209;-55
2022/08/09 09:38:29;;;;;;;6.20;4.72;;;;;;;28.37;69.38;100946.18;1683717;82;21208;-55
2022/08/09 09:41:44;;;;;;;9.23;4.83;;;;;;;28.39;69.07;100948.13;1697932;83;21224;-56
2022/08/09 09:44:52;;;;;;;8.40;5.60;;;;;;;28.43;68.94;100938.84;1708386;81;21226;-55
2022/08/09 09:47:59;;;;;;;9.25;5.55;;;;;;;28.50;68.87;100935.78;1702399;82;21210;-57
2022/08/09 09:51:07;;;;;;;4.97;4.40;;;;;;;28.59;68.71;100942.58;1713168;82;21245;-55
2022/08/09 09:54:22;;;;;;;6.62;4.95;;;;;;;28.64;68.51;100932.69;1714013;82;21212;-56
2022/08/09 09:57:30;;;;;;;10.18;5.75;;;;;;;28.64;68.36;100939.18;1702204;82;21217;-57
2022/08/09 10:00:46;;;;;;;10.38;5.55;;;;;;;28.69;68.29;100945.37;1705941;82;21642;-55
2022/08/09 10:03:59;;;;;;;11.90;6.45;;;;;;;28.69;67.93;100929.88;1695399;82;21284;-54
2022/08/09 10:07:07;;;;;;;8.25;5.85;;;;;;;28.70;67.70;100925.95;1710973;82;21224;-55
2022/08/09 10:10:16;;;;;;;15.68;7.25;;;;;;;28.79;67.67;100930.73;1700190;82;21297;-54
2022/08/09 10:13:47;;;;;;;14.83;7.28;;;;;;;28.88;67.54;100929.59;1701083;84;21909;-55
2022/08/09 10:16:54;;;;;;;13.80;6.67;;;;;;;28.97;67.40;100928.73;1729919;82;21185;-56
2022/08/09 10:20:08;;;;;;;16.87;7.53;;;;;;;29.05;67.12;100930.16;1730970;82;21718;-56
2022/08/09 10:23:29;;;;;;;12.35;6.28;;;;;;;29.05;66.84;100929.58;1702311;83;21233;-57
2022/08/09 10:26:36;;;;;;;9.68;5.65;;;;;;;29.06;66.66;100929.02;1690046;83;21208;-56
2022/08/09 10:29:45;;;;;;;13.53;6.42;;;;;;;29.10;66.50;100932.98;1695783;84;21282;-56
2022/08/09 10:32:56;;;;;;;14.15;6.90;;;;;;;29.14;66.32;100928.47;1688300;84;21226;-57
2022/08/09 10:36:06;;;;;;;13.30;5.67;;;;;;;29.21;66.30;100927.59;1697364;84;21191;-55
2022/08/09 10:39:18;;;;;;;7.17;5.53;;;;;;;29.27;66.08;100933.53;1669383;86;21218;-58
2022/08/09 10:42:28;;;;;;;9.93;5.22;;;;;;;29.29;65.87;100922.78;1689096;84;21242;-54
2022/08/09 10:45:39;;;;;;;7.40;4.70;;;;;;;29.37;65.79;100926.44;1697470;84;21242;-56
2022/08/09 10:49:01;;;;;;;8.05;5.22;;;;;;;29.45;65.63;100931.48;1680902;83;21224;-56
2022/08/09 10:52:41;;;;;;;10.55;4.95;;;;;;;29.54;65.47;100923.29;1675033;85;21224;-55
2022/08/09 10:55:47;;;;;;;9.20;5.42;;;;;;;29.68;65.35;100918.75;1674384;84;21219;-56
2022/08/09 10:58:57;;;;;;;8.13;5.15;;;;;;;29.85;65.18;100925.73;1705448;82;21231;-56
2022/08/09 11:02:04;;;;;;;7.90;5.00;;;;;;;29.94;64.90;100925.39;1668488;84;21284;-57
2022/08/09 11:05:21;;;;;;;9.08;4.97;;;;;;;30.01;64.64;100915.19;1725063;81;21233;-56
2022/08/09 11:08:51;;;;;;;8.30;5.70;;;;;;;30.01;64.26;100913.78;1676419;83;21759;-56
2022/08/09 11:12:06;;;;;;;8.98;4.55;;;;;;;30.05;64.12;100919.14;1695650;82;21289;-54
2022/08/09 11:15:33;;;;;;;8.68;4.87;;;;;;;30.09;63.46;100919.67;1659578;84;21282;-56
2022/08/09 11:18:51;;;;;;;10.08;5.58;;;;;;;30.09;63.46;100919.67;1665026;84;21233;-56
2022/08/09 11:22:06;;;;;;;7.80;4.67;;;;;;;30.12;63.48;100918.23;1719767;81;21293;-53
2022/08/09 11:25:20;;;;;;;8.73;5.33;;;;;;;30.13;63.20;100910.02;1703780;81;21270;-54
2022/08/09 11:28:43;;;;;;;9.00;5.47;;;;;;;30.24;63.32;100918.77;1690710;82;21282;-55
2022/08/09 11:31:55;;;;;;;13.35;5.67;;;;;;;30.37;63.20;100911.87;1637513;85;21593;-57
2022/08/09 11:35:03;;;;;;;7.45;5.55;;;;;;;30.52;62.97;100906.09;1634052;85;21255;-55
2022/08/09 11:38:39;;;;;;;11.57;6.10;;;;;;;30.56;62.65;100905.80;1659658;81;21252;-56
2022/08/09 11:41:49;;;;;;;8.95;6.12;;;;;;;30.56;62.38;100903.53;1673011;84;21375;-56
2022/08/09 11:44:58;;;;;;;9.38;6.40;;;;;;;30.54;62.13;100902.41;1673519;83;21670;-57
2022/08/09 11:48:07;;;;;;;11.73;5.58;;;;;;;30.51;61.98;100904.98;1698390;82;21540;-58
2022/08/09 11:51:15;;;;;;;8.58;5.97;;;;;;;30.44;61.73;100898.84;1676459;84;21608;-55
2022/08/09 11:54:25;;;;;;;9.15;5.87;;;;;;;30.44;61.70;100909.58;1681345;85;21743;-56
2022/08/09 11:57:47;;;;;;;14.23;6.08;;;;;;;30.43;61.55;100903.63;1663808;83;21877;-56
2022/08/09 12:01:05;;;;;;;8.85;5.55;;;;;;;30.45;61.52;100890.06;1646810;86;21222;-57
2022/08/09 12:04:21;;;;;;;8.80;6.25;;;;;;;30.42;61.19;100896.30;1656545;85;21584;-55
2022/08/09 12:07:39;;;;;;;7.72;6.12;;;;;;;30.41;61.08;100898.84;1662912;84;21218;-55
2022/08/09 12:10:54;;;;;;;8.78;5.92;;;;;;;30.41;60.96;100898.02;1681640;85;22166;-54
2022/08/09 12:14:13;;;;;;;7.17;6.35;;;;;;;30.29;60.61;100911.64;1682505;85;21779;-53
2022/08/09 12:17:25;;;;;;;12.10;7.25;;;;;;;30.08;60.32;100886.89;1732337;82;21762;-52
2022/08/09 12:20:35;;;;;;;6.87;6.17;;;;;;;30.04;60.29;100888.63;1737915;82;21589;-52
2022/08/09 12:23:54;;;;;;;9.90;7.08;;;;;;;29.93;60.20;100887.00;1736800;82;21206;-53
2022/08/09 12:27:03;;;;;;;10.08;8.58;;;;;;;29.87;60.21;100890.14;1708436;83;21235;-53
2022/08/09 12:30:12;;;;;;;11.03;8.65;;;;;;;29.80;60.16;100887.63;1707465;84;21215;-52
2022/08/09 12:33:23;;;;;;;11.75;9.45;;;;;;;29.87;60.22;100898.61;1712811;82;21220;-53
2022/08/09 12:36:32;;;;;;;10.88;8.58;;;;;;;29.85;60.19;100895.23;1672447;84;21310;-54
2022/08/09 12:39:40;;;;;;;17.92;9.75;;;;;;;29.71;60.15;100885.14;1715668;81;21658;-53
2022/08/09 12:42:51;;;;;;;12.47;9.73;;;;;;;29.71;60.15;100885.14;1689624;83;21303;-52
2022/08/09 12:46:01;;;;;;;11.10;9.38;;;;;;;29.61;59.86;100890.80;1710257;81;21209;-53
2022/08/09 12:49:11;;;;;;;10.38;9.28;;;;;;;29.56;59.93;100886.58;1687141;85;21216;-56
2022/08/09 12:52:33;;;;;;;13.03;9.88;;;;;;;29.49;59.87;100893.67;1691839;83;21255;-51
2022/08/09 12:55:42;;;;;;;14.73;10.13;;;;;;;29.48;59.95;100891.41;1716061;83;21197;-52
2022/08/09 12:59:17;;;;;;;15.28;10.45;;;;;;;29.44;59.95;100893.12;1691236;84;22476;-53
2022/08/09 13:02:32;;;;;;;12.05;10.70;;;;;;;29.42;59.90;100893.97;1697272;84;21341;-54
2022/08/09 13:05:55;;;;;;;12.13;10.10;;;;;;;29.36;59.84;100893.72;1700102;83;21441;-53
2022/08/09 13:09:13;;;;;;;13.32;10.03;;;;;;;29.34;59.81;100890.33;1703502;83;21232;-53
2022/08/09 13:12:26;;;;;;;11.03;9.70;;;;;;;29.32;59.78;100892.59;1687933;84;21792;-53
2022/08/09 13:15:37;;;;;;;11.35;9.73;;;;;;;29.30;59.78;100902.48;1696783;83;21259;-52
2022/08/09 13:18:53;;;;;;;11.83;10.43;;;;;;;29.27;60.08;100893.19;1694552;82;21799;-53
2022/08/09 13:22:27;;;;;;;10.35;9.23;;;;;;;29.27;60.08;100893.19;1702551;82;21243;-54
2022/08/09 13:25:50;;;;;;;11.70;8.78;;;;;;;29.21;59.65;100886.14;1702426;83;21270;-54
2022/08/09 13:29:24;;;;;;;11.30;8.73;;;;;;;29.21;59.54;100889.52;1710263;82;21232;-53
2022/08/09 13:32:31;;;;;;;9.68;8.40;;;;;;;29.21;59.54;100889.52;1666913;84;21828;-51
2022/08/09 13:35:55;;;;;;;14.00;9.20;;;;;;;29.24;59.47;100905.86;1688010;83;21721;-53
2022/08/09 13:39:13;;;;;;;11.18;8.38;;;;;;;29.21;59.42;100903.62;1716793;82;21759;-53
2022/08/09 13:42:22;;;;;;;10.40;8.20;;;;;;;29.15;59.06;100888.70;1658516;86;21278;-52
2022/08/09 13:45:35;;;;;;;10.05;8.90;;;;;;;29.15;59.06;100888.70;1704025;82;21202;-52
2022/08/09 13:48:46;;;;;;;9.23;8.25;;;;;;;29.12;59.18;100885.05;1727789;82;21234;-53
2022/08/09 13:52:14;;;;;;;11.83;8.83;;;;;;;29.13;58.95;100890.09;1711155;81;21302;-53
2022/08/09 13:55:40;;;;;;;9.28;8.38;;;;;;;29.13;58.95;100890.09;1717021;82;21440;-53
2022/08/09 13:58:52;;;;;;;10.40;8.05;;;;;;;29.10;59.00;100887.85;1709285;81;21274;-53
2022/08/09 14:01:57;;;;;;;10.85;8.15;;;;;;;29.05;58.88;100887.27;1716236;81;21294;-52
2022/08/09 14:05:08;;;;;;;8.80;7.90;;;;;;;28.99;58.83;100883.33;1709519;82;21246;-55
2022/08/09 14:08:23;;;;;;;9.95;7.78;;;;;;;28.96;58.82;100876.86;1708088;82;21373;-57
2022/08/09 14:11:33;;;;;;;10.93;8.63;;;;;;;28.96;58.70;100886.72;1707286;83;21587;-57
2022/08/09 14:14:43;;;;;;;10.60;8.20;;;;;;;28.87;58.57;100885.06;1705415;83;21270;-56
2022/08/09 14:17:53;;;;;;;10.95;8.20;;;;;;;28.79;58.60;100877.73;1710072;81;21214;-56
2022/08/09 14:21:02;;;;;;;12.82;8.98;;;;;;;28.79;58.59;100881.97;1708070;81;21206;-56
2022/08/09 14:24:16;;;;;;;10.95;8.18;;;;;;;28.81;58.58;100868.44;1698522;84;21866;-56
2022/08/09 14:27:26;;;;;;;10.98;8.88;;;;;;;28.83;58.54;100871.80;1700643;81;21223;-56
2022/08/09 14:30:37;;;;;;;9.85;8.85;;;;;;;28.83;58.49;100876.02;1667769;85;21753;-56
2022/08/09 14:33:47;;;;;;;10.75;8.53;;;;;;;28.76;58.41;100874.08;1703930;81;21953;-56
2022/08/09 14:36:54;;;;;;;13.05;8.83;;;;;;;28.65;58.34;100877.48;1722444;83;21576;-57
2022/08/09 14:40:04;;;;;;;10.80;8.95;;;;;;;28.60;58.39;100885.08;1727762;83;21753;-56